createdAt,value
2022-09-07T00:05:31.331Z,5.05
2022-09-07T00:13:41.253Z,4.82
2022-09-07T00:21:46.657Z,5.63
2022-09-07T00:29:54.960Z,5.75
2022-09-07T00:38:00.405Z,5.20
2022-09-07T00:46:10.499Z,4.90
2022-09-07T00:54:20.424Z,5.13
2022-09-07T01:02:29.364Z,5.32
2022-09-07T01:10:35.046Z,5.03
2022-09-07T01:18:52.497Z,5.30
2022-09-07T01:27:20.397Z,5.00
2022-09-07T01:35:39.386Z,4.90
2022-09-07T01:43:51.089Z,4.90
2022-09-07T01:52:03.946Z,4.75
2022-09-07T02:00:12.274Z,4.87
2022-09-07T02:08:29.620Z,5.38
2022-09-07T02:16:37.614Z,5.18
2022-09-07T02:24:51.346Z,4.45
2022-09-07T02:32:57.494Z,6.05
2022-09-07T02:41:06.681Z,4.88
2022-09-07T02:49:24.278Z,5.30
2022-09-07T02:57:41.163Z,5.20
2022-09-07T03:05:51.963Z,5.07
2022-09-07T03:14:14.822Z,5.68
2022-09-07T03:22:20.275Z,5.63
2022-09-07T03:30:28.441Z,5.65
2022-09-07T03:38:33.989Z,5.65
2022-09-07T03:46:42.095Z,5.80
2022-09-07T03:54:47.622Z,5.55
2022-09-07T04:02:55.762Z,5.20
2022-09-07T04:11:01.913Z,5.45
2022-09-07T04:19:10.033Z,5.93
2022-09-07T04:27:15.525Z,6.00
2022-09-07T04:35:23.641Z,5.85
2022-09-07T04:43:29.177Z,5.93
2022-09-07T04:51:38.221Z,6.35
2022-09-07T04:59:43.678Z,6.43
2022-09-07T05:07:51.811Z,6.15
2022-09-07T05:15:57.258Z,6.32
2022-09-07T05:24:05.840Z,5.60
2022-09-07T05:32:11.353Z,5.13
2022-09-07T05:40:19.517Z,6.65
2022-09-07T05:48:24.926Z,6.50
2022-09-07T05:56:33.081Z,5.53
2022-09-07T06:04:38.527Z,4.85
2022-09-07T06:12:49.294Z,4.57
2022-09-07T06:20:55.091Z,4.88
2022-09-07T06:29:05.018Z,6.63
2022-09-07T06:37:10.873Z,6.15
2022-09-07T06:45:19.048Z,5.47
2022-09-07T06:53:41.831Z,5.35
2022-09-07T07:01:52.491Z,5.90
2022-09-07T07:09:57.955Z,5.60
2022-09-07T07:18:20.450Z,4.63
2022-09-07T07:26:28.203Z,4.95
2022-09-07T07:34:36.318Z,4.85
2022-09-07T07:42:43.081Z,5.22
2022-09-07T07:51:04.354Z,5.63
2022-09-07T07:59:15.650Z,5.18
2022-09-07T08:07:24.041Z,5.93
2022-09-07T08:15:29.974Z,6.10
2022-09-07T08:23:38.919Z,5.38
2022-09-07T08:31:44.841Z,5.00
2022-09-07T08:39:52.839Z,5.22
2022-09-07T08:47:58.298Z,4.85
2022-09-07T08:56:10.378Z,4.35
2022-09-07T09:04:23.043Z,5.53
2022-09-07T09:12:41.893Z,4.68
2022-09-07T09:20:52.863Z,4.22
2022-09-07T09:29:01.299Z,4.50
2022-09-07T09:37:22.726Z,6.38
2022-09-07T09:46:12.156Z,5.03
2022-09-07T09:54:06.170Z,5.35
2022-09-07T10:11:01.313Z,4.90
2022-09-07T10:19:09.313Z,5.22
2022-09-07T10:27:31.603Z,5.90
2022-09-07T10:35:52.126Z,5.30
2022-09-07T10:43:58.705Z,5.32
2022-09-07T10:52:14.405Z,5.35
2022-09-07T11:00:22.413Z,5.07
2022-09-07T11:17:16.040Z,5.60
2022-09-07T11:25:30.037Z,5.30
2022-09-07T11:33:40.477Z,5.13
2022-09-07T11:41:55.416Z,5.03
2022-09-07T11:50:00.903Z,6.18
2022-09-07T11:58:39.124Z,6.25
2022-09-07T12:07:20.686Z,6.30
2022-09-07T12:15:38.249Z,6.03
2022-09-07T12:23:49.350Z,6.88
2022-09-07T12:32:00.039Z,8.13
2022-09-07T12:40:47.125Z,6.57
2022-09-07T12:49:04.739Z,7.45
2022-09-07T12:57:29.889Z,7.63
2022-09-07T13:05:54.640Z,7.32
2022-09-07T13:14:04.745Z,6.93
2022-09-07T13:23:01.201Z,8.15
2022-09-07T13:31:21.885Z,7.85
2022-09-07T13:39:31.881Z,8.00
2022-09-07T13:47:45.427Z,7.82
2022-09-07T13:56:03.254Z,7.15
2022-09-07T14:04:09.624Z,7.45
2022-09-07T14:12:22.120Z,6.60
2022-09-07T14:20:28.383Z,8.15
2022-09-07T14:28:40.739Z,7.32
2022-09-07T14:36:47.031Z,7.78
2022-09-07T14:45:21.962Z,7.40
2022-09-07T14:53:35.059Z,7.85
2022-09-07T15:01:43.285Z,9.02
2022-09-07T15:09:48.732Z,7.60
2022-09-07T15:18:03.062Z,9.35
2022-09-07T15:27:02.024Z,9.25
2022-09-07T15:34:40.508Z,9.00
2022-09-07T15:43:04.292Z,8.15
2022-09-07T15:59:40.726Z,8.73
2022-09-07T16:16:15.695Z,8.82
2022-09-07T16:24:23.902Z,9.13
2022-09-07T16:32:44.953Z,8.45
2022-09-07T16:40:53.896Z,8.48
2022-09-07T16:48:59.506Z,8.10
2022-09-07T16:57:07.938Z,6.82
2022-09-07T17:05:13.239Z,5.97
2022-09-07T17:13:21.171Z,6.05
2022-09-07T17:21:26.655Z,6.90
2022-09-07T17:29:37.672Z,6.57
2022-09-07T17:37:43.059Z,6.90
2022-09-07T17:45:51.188Z,6.03
2022-09-07T17:54:00.223Z,7.05
2022-09-07T18:02:08.170Z,6.65
2022-09-07T18:10:13.551Z,6.80
2022-09-07T18:18:21.494Z,7.85
2022-09-07T18:26:28.221Z,8.23
2022-09-07T18:34:36.309Z,8.20
2022-09-07T18:42:42.100Z,7.78
2022-09-07T18:50:56.304Z,9.65
2022-09-07T18:59:01.603Z,9.48
2022-09-07T19:07:09.577Z,9.20
2022-09-07T19:15:14.859Z,8.95
2022-09-07T19:23:22.782Z,7.88
2022-09-07T19:31:29.203Z,8.40
2022-09-07T19:39:37.323Z,9.07
2022-09-07T19:47:42.699Z,9.30
2022-09-07T19:55:50.878Z,9.40
2022-09-07T20:04:00.497Z,9.48
2022-09-07T20:12:10.955Z,9.93
2022-09-07T20:20:16.343Z,9.82
2022-09-07T20:28:24.242Z,9.73
2022-09-07T20:36:29.566Z,8.20
2022-09-07T20:44:37.528Z,8.18
2022-09-07T20:52:42.842Z,9.43
2022-09-07T21:00:56.644Z,8.85
2022-09-07T21:09:02.641Z,10.48
2022-09-07T21:17:10.527Z,10.05
2022-09-07T21:25:15.863Z,10.43
2022-09-07T21:33:23.962Z,10.27
2022-09-07T21:41:29.480Z,10.38
2022-09-07T21:49:37.430Z,10.45
2022-09-07T21:57:42.837Z,12.02
2022-09-07T22:05:50.848Z,12.02
2022-09-07T22:13:58.238Z,11.50
2022-09-07T22:22:06.177Z,11.48
2022-09-07T22:30:12.822Z,12.32
2022-09-07T22:38:20.718Z,12.20
2022-09-07T22:46:28.561Z,11.48
2022-09-07T22:54:36.508Z,12.20
2022-09-07T23:02:41.826Z,13.23
2022-09-07T23:10:49.773Z,11.20
2022-09-07T23:18:55.124Z,11.73
2022-09-07T23:27:02.990Z,11.80
2022-09-07T23:35:10.268Z,12.20
2022-09-07T23:43:20.641Z,12.57
2022-09-07T23:51:25.944Z,10.88
2022-09-07T23:59:34.201Z,12.85
